Fayette, Missouri
Current Conditions -  °F | °C
As of 8:35 PM on Sunday 23 Nov 2014 (Local Time) from KVER Reporting Station
Moderate Fog Moderate Fog  
Wind Chill: 12°   Ceiling: 200
Heat Index: 12°   Visibility: 0.5mi
Dew Point: 12°   Wind: 7mph
Humidity: 100%   Direction: 280°W
Pressure: 29.28"   Gusts: NA
Location:  39.15°N, 92.68°W
Report Text: KVER 240235Z AUTO 28006KT 1/2SM FG OVC002 12/12 A2928 RMK AO2 T01220123
Loading
Personal Weather Stations






























Interactive Weather Map New forecast layout! Learn more

10-Day Weather Forecast

Advertisements
Track Severe Weather on mobile